TimeCDT,TemperatureF,Dew PointF,Humidity,Sea Level PressureIn,VisibilityMPH,Wind Direction,Wind SpeedMPH,Gust SpeedMPH,PrecipitationIn,Events,Conditions,WindDirDegrees,DateUTC
12:54 AM,59.0,55.0,87,29.90,10.0,NNW,6.9,-,N/A,,Clear,330,2013-06-07 05:54:00
1:54 AM,59.0,55.0,87,29.91,10.0,NNW,5.8,-,N/A,,Scattered Clouds,340,2013-06-07 06:54:00
2:02 AM,59.0,55.4,88,29.91,10.0,NNW,4.6,-,N/A,,Mostly Cloudy,340,2013-06-07 07:02:00
2:16 AM,57.2,55.4,94,29.91,10.0,NNW,5.8,-,N/A,,Scattered Clouds,330,2013-06-07 07:16:00
2:40 AM,59.0,55.4,88,29.91,10.0,NW,5.8,-,N/A,,Mostly Cloudy,320,2013-06-07 07:40:00
2:54 AM,59.0,55.0,87,29.90,10.0,NW,3.5,-,N/A,,Mostly Cloudy,320,2013-06-07 07:54:00
3:54 AM,59.0,55.9,90,29.90,7.0,NNW,5.8,-,N/A,,Overcast,340,2013-06-07 08:54:00
4:46 AM,57.2,55.4,94,29.91,5.0,North,4.6,-,N/A,,Scattered Clouds,10,2013-06-07 09:46:00
4:54 AM,57.0,55.0,93,29.90,4.0,NNW,5.8,-,N/A,,Scattered Clouds,330,2013-06-07 09:54:00
5:32 AM,57.2,55.4,94,29.92,2.5,NNW,5.8,-,N/A,,Partly Cloudy,330,2013-06-07 10:32:00
5:49 AM,57.2,55.4,94,29.93,2.0,NNW,6.9,-,N/A,,Mostly Cloudy,340,2013-06-07 10:49:00
5:54 AM,57.9,55.9,93,29.92,2.0,NNW,6.9,-,N/A,,Mostly Cloudy,340,2013-06-07 10:54:00
6:22 AM,59.0,55.4,88,29.93,3.0,North,6.9,-,N/A,,Overcast,360,2013-06-07 11:22:00
6:54 AM,59.0,55.9,90,29.93,4.0,North,8.1,-,N/A,,Overcast,360,2013-06-07 11:54:00
7:20 AM,60.8,55.4,82,29.94,4.0,North,6.9,-,N/A,,Overcast,10,2013-06-07 12:20:00
7:51 AM,60.8,55.4,82,29.95,5.0,North,9.2,-,N/A,,Overcast,360,2013-06-07 12:51:00
7:54 AM,60.1,55.9,86,29.94,5.0,North,8.1,-,N/A,,Overcast,360,2013-06-07 12:54:00
8:54 AM,63.0,55.0,75,29.94,8.0,NNE,10.4,-,N/A,,Scattered Clouds,20,2013-06-07 13:54:00
9:43 AM,66.2,57.2,73,29.95,8.0,NNE,10.4,-,N/A,,Mostly Cloudy,20,2013-06-07 14:43:00
9:54 AM,64.9,57.0,75,29.94,9.0,NNE,8.1,-,N/A,,Mostly Cloudy,20,2013-06-07 14:54:00
10:05 AM,66.2,57.2,73,29.95,10.0,North,8.1,-,N/A,,Mostly Cloudy,360,2013-06-07 15:05:00
10:46 AM,68.0,55.4,64,29.95,10.0,North,9.2,-,N/A,,Scattered Clouds,10,2013-06-07 15:46:00
10:54 AM,69.1,57.0,65,29.94,10.0,North,10.4,16.1,N/A,,Scattered Clouds,350,2013-06-07 15:54:00
11:54 AM,68.0,55.0,63,29.94,10.0,North,11.5,-,N/A,,Mostly Cloudy,350,2013-06-07 16:54:00
12:54 PM,69.1,53.1,57,29.94,10.0,NNW,11.5,-,N/A,,Mostly Cloudy,340,2013-06-07 17:54:00
1:54 PM,72.0,55.0,55,29.92,10.0,North,13.8,20.7,N/A,,Partly Cloudy,10,2013-06-07 18:54:00
2:54 PM,72.0,54.0,53,29.92,10.0,North,12.7,-,N/A,,Overcast,360,2013-06-07 19:54:00
3:54 PM,71.1,53.1,53,29.91,10.0,North,12.7,19.6,N/A,,Mostly Cloudy,360,2013-06-07 20:54:00
4:54 PM,73.0,52.0,48,29.90,10.0,NNE,9.2,-,N/A,,Scattered Clouds,20,2013-06-07 21:54:00
5:54 PM,72.0,52.0,49,29.90,10.0,North,8.1,-,N/A,,Partly Cloudy,350,2013-06-07 22:54:00
6:54 PM,72.0,52.0,49,29.90,10.0,North,6.9,-,N/A,,Partly Cloudy,360,2013-06-07 23:54:00
7:54 PM,68.0,52.0,56,29.91,10.0,North,4.6,-,N/A,,Clear,360,2013-06-08 00:54:00
8:54 PM,66.0,53.1,63,29.91,10.0,Calm,Calm,-,N/A,,Clear,0,2013-06-08 01:54:00
9:54 PM,62.1,53.1,72,29.92,10.0,NNW,6.9,-,N/A,,Clear,330,2013-06-08 02:54:00
10:54 PM,62.1,53.1,72,29.93,10.0,Calm,Calm,-,N/A,,Clear,0,2013-06-08 03:54:00
11:54 PM,62.1,53.1,72,29.92,10.0,Calm,Calm,-,N/A,,Clear,0,2013-06-08 04:54:00